Nipigon, Canada
Current Conditions -  °F | °C
As of 11:00 PM on Sunday 23 Nov 2014 (Local Time) from CYQT Reporting Station
Haze Haze  
Wind Chill: 31°   Ceiling: 2200
Heat Index: 36°   Visibility: 4mi
Dew Point: 36°   Wind: 6mph
Humidity: 100%   Direction: 220°SW
Pressure: 29.31"   Gusts: NA
Location:  49.01°N, 88.26°W
Report Text: CYQT 240400Z 22005KT 4SM BR FEW002 OVC022 02/02 A2931 RMK SF1SC7 SLP935
Loading
Personal Weather Stations






























Interactive Weather Map New forecast layout! Learn more

10-Day Weather Forecast

Advertisements
Track Severe Weather on mobile